Overview Statistics Trail Chart Weather Telemetry Raw packets
 

This is the latest recevied weather packets stored in our database for station/object OM6ACB-6. If no packets are shown the sender has not sent any weather packets the latest 10 day(s).

<< 45 46 47 48 49 50 51 >>
Time Temp. Humidity Pressure Rain* Wind** Luminosity Snow
1787967057 20° C 23% 1016.7 hPa 0 mm - - -
1787966457 19.44° C 23% 1016.8 hPa 0 mm - - -
1787965857 20.56° C 22% 1017 hPa 0 mm - - -
1787965256 20.56° C 22% 1017.1 hPa 0 mm - - -
1787964656 20.56° C 22% 1017.3 hPa 0 mm - - -
1787964056 20.56° C 22% 1017.3 hPa 0 mm - - -
1787963455 20.56° C 22% 1017.3 hPa 0 mm - - -
1787962855 19.44° C 23% 1017.4 hPa 0 mm - - -
1787962255 19.44° C 23% 1017.5 hPa 0 mm - - -
1787961654 18.33° C 23% 1017.4 hPa 0 mm - - -
1787961063 17.22° C 24% 1017.3 hPa 0 mm - - -
1787960454 18.33° C 23% 1017.6 hPa 0 mm - - -
1787959853 18.89° C 23% 1018.1 hPa 0 mm - - -
1787959253 20.56° C 22% 1018.3 hPa 0 mm - - -
1787958653 20.56° C 22% 1018.4 hPa 0 mm - - -
1787958053 20.56° C 22% 1018.4 hPa 0 mm - - -
1787957452 20° C 23% 1018.1 hPa 0 mm - - -
1787956852 17.78° C 24% 1017.8 hPa 0 mm - - -
1787956252 16.11° C 25% 1017.8 hPa 0 mm - - -
1787955651 16.11° C 25% 1018.1 hPa 0 mm - - -
1787955051 16.67° C 24% 1018.4 hPa 0 mm - - -
1787954451 16.67° C 24% 1018.6 hPa 0 mm - - -
1787953850 16.11° C 24% 1018.6 hPa 0 mm - - -
1787953250 16.11° C 24% 1018.8 hPa 0 mm - - -
1787952650 17.22° C 24% 1018.9 hPa 0 mm - - -

* Rain latest hour (hover to see other rain measurements)
** Current wind speed in m/s (hover to see current wind gust speed)